Time;durP1;ratioP1;P1;durP2;ratioP2;P2;SDS_P1;SDS_P2;PMS_P1;PMS_P2;Temp;Humidity;BMP_temperature;BMP_pressure;BME280_temperature;BME280_humidity;BME280_pressure;Samples;Min_cycle;Max_cycle;Signal;HPM_P1;HPM_P2
2023/07/25 00:00:14;;;;;;;5.53;2.47;;;;;;;14.00;100.00;99767.56;687849;28;863;-63
2023/07/25 00:00:34;;;;;;;5.10;2.53;;;;;;;13.99;100.00;99768.50;686620;28;1109;-63
2023/07/25 00:00:54;;;;;;;4.90;2.50;;;;;;;13.96;100.00;99769.47;687821;28;836;-63
2023/07/25 00:01:15;;;;;;;4.87;2.40;;;;;;;13.98;100.00;99765.00;687440;28;4476;-63
2023/07/25 00:01:36;;;;;;;4.90;2.30;;;;;;;13.98;100.00;99766.78;686765;28;1832;-63
2023/07/25 00:01:56;;;;;;;5.65;2.60;;;;;;;13.95;100.00;99759.84;687861;28;769;-63
2023/07/25 00:02:17;;;;;;;5.47;2.60;;;;;;;13.94;100.00;99766.88;688036;28;992;-63
2023/07/25 00:02:37;;;;;;;5.68;2.40;;;;;;;13.92;100.00;99760.81;686871;28;923;-63
2023/07/25 00:02:58;;;;;;;4.80;2.13;;;;;;;13.91;100.00;99766.13;687412;28;806;-63
2023/07/25 00:03:18;;;;;;;6.15;2.78;;;;;;;13.90;100.00;99767.91;687107;28;1638;-63
2023/07/25 00:03:38;;;;;;;6.20;2.83;;;;;;;13.90;100.00;99761.75;687833;28;946;-63
2023/07/25 00:03:59;;;;;;;6.90;2.50;;;;;;;13.90;100.00;99769.63;687339;28;1209;-63
2023/07/25 00:04:19;;;;;;;6.63;2.60;;;;;;;13.90;100.00;99767.91;686187;28;4257;-63
2023/07/25 00:04:40;;;;;;;4.95;2.50;;;;;;;13.88;100.00;99772.31;687099;28;896;-63
2023/07/25 00:05:00;;;;;;;6.77;2.63;;;;;;;13.89;100.00;99774.06;685792;28;833;-63
2023/07/25 00:05:21;;;;;;;6.85;2.53;;;;;;;13.88;100.00;99777.56;684579;28;1470;-63
2023/07/25 00:05:41;;;;;;;6.83;2.50;;;;;;;13.86;100.00;99770.66;684994;28;1002;-63
2023/07/25 00:06:05;;;;;;;5.95;2.50;;;;;;;13.86;100.00;99774.16;683382;28;1166;-63
2023/07/25 00:06:26;;;;;;;4.50;2.35;;;;;;;13.86;100.00;99775.91;685903;28;958;-63
2023/07/25 00:06:46;;;;;;;6.27;2.57;;;;;;;13.85;100.00;99782.09;688011;28;832;-63
2023/07/25 00:07:06;;;;;;;6.20;2.50;;;;;;;13.84;100.00;99780.38;689523;28;1007;-63
2023/07/25 00:07:27;;;;;;;4.43;2.53;;;;;;;13.86;100.00;99773.28;686518;28;4592;-63
2023/07/25 00:07:47;;;;;;;5.50;2.80;;;;;;;13.86;100.00;99779.41;689616;28;1291;-63
2023/07/25 00:08:08;;;;;;;4.38;2.45;;;;;;;13.85;100.00;99775.06;687005;28;1053;-63
2023/07/25 00:08:28;;;;;;;4.13;2.33;;;;;;;13.85;100.00;99782.09;686221;28;1483;-63
2023/07/25 00:08:48;;;;;;;4.97;2.40;;;;;;;13.86;100.00;99778.53;687813;28;840;-63
2023/07/25 00:09:09;;;;;;;7.17;2.53;;;;;;;13.90;100.00;99781.03;689492;28;1263;-63
2023/07/25 00:09:29;;;;;;;10.60;3.10;;;;;;;13.93;100.00;99780.06;687756;28;1450;-63
2023/07/25 00:09:50;;;;;;;9.33;2.63;;;;;;;13.89;100.00;99784.56;688166;28;1014;-63
2023/07/25 00:10:10;;;;;;;5.35;2.35;;;;;;;13.89;100.00;99779.31;687193;28;4512;-63
2023/07/25 00:10:34;;;;;;;6.57;2.40;;;;;;;13.90;100.00;99777.53;687059;28;1638;-63
2023/07/25 00:10:54;;;;;;;6.60;2.40;;;;;;;13.92;100.00;99783.59;687605;28;983;-64
2023/07/25 00:11:15;;;;;;;5.72;2.38;;;;;;;13.91;100.00;99779.25;686939;28;1532;-63
2023/07/25 00:11:35;;;;;;;5.78;2.25;;;;;;;13.93;100.00;99782.69;686735;28;1862;-63
2023/07/25 00:11:55;;;;;;;6.13;2.20;;;;;;;13.92;100.00;99784.44;687758;28;1059;-63
2023/07/25 00:12:16;;;;;;;6.13;2.33;;;;;;;13.90;100.00;99782.78;684619;28;1634;-63
2023/07/25 00:12:37;;;;;;;5.30;2.37;;;;;;;13.88;100.00;99787.25;683897;28;1447;-63
2023/07/25 00:12:57;;;;;;;5.07;2.13;;;;;;;13.86;100.00;99782.03;685633;28;916;-63
2023/07/25 00:13:18;;;;;;;5.20;2.30;;;;;;;13.85;100.00;99780.31;683550;28;4496;-63
2023/07/25 00:13:38;;;;;;;5.57;2.28;;;;;;;13.84;100.00;99781.22;685627;28;1026;-63
2023/07/25 00:13:59;;;;;;;5.90;2.40;;;;;;;13.84;100.00;99780.38;686019;28;908;-63
2023/07/25 00:14:19;;;;;;;5.60;2.27;;;;;;;13.83;100.00;99776.00;688600;28;1485;-63
2023/07/25 00:14:39;;;;;;;4.70;2.23;;;;;;;13.82;100.00;99783.03;688259;28;1122;-63
2023/07/25 00:15:00;;;;;;;5.10;2.28;;;;;;;13.83;100.00;99774.25;688580;28;778;-62
2023/07/25 00:15:21;;;;;;;5.50;2.20;;;;;;;13.84;100.00;99786.47;686872;28;1552;-63
2023/07/25 00:15:42;;;;;;;6.30;2.50;;;;;;;13.83;100.00;99784.78;688372;28;817;-63
2023/07/25 00:16:03;;;;;;;5.53;2.30;;;;;;;13.83;100.00;99789.16;688420;28;865;-63
2023/07/25 00:16:23;;;;;;;7.07;2.70;;;;;;;13.81;100.00;99777.84;686452;28;4374;-64
2023/07/25 00:16:43;;;;;;;5.43;2.57;;;;;;;13.82;100.00;99783.03;688379;28;1097;-63
2023/07/25 00:17:04;;;;;;;4.78;2.10;;;;;;;13.81;100.00;99777.84;688379;28;781;-63
2023/07/25 00:17:24;;;;;;;4.30;2.10;;;;;;;13.81;100.00;99783.94;687162;28;1737;-63
2023/07/25 00:17:45;;;;;;;4.72;2.20;;;;;;;13.79;100.00;99781.38;691009;28;896;-63
2023/07/25 00:18:05;;;;;;;5.68;2.30;;;;;;;13.83;100.00;99776.88;690787;28;1275;-63
2023/07/25 00:18:26;;;;;;;4.90;2.07;;;;;;;13.84;100.00;99778.59;686586;28;1528;-63
2023/07/25 00:18:46;;;;;;;5.63;2.23;;;;;;;13.83;100.00;99784.78;688199;28;1407;-63
2023/07/25 00:19:07;;;;;;;6.43;2.37;;;;;;;13.79;100.00;99777.91;688159;28;1920;-63
2023/07/25 00:19:27;;;;;;;4.75;2.30;;;;;;;13.78;100.00;99779.66;686321;28;4895;-63
2023/07/25 00:19:48;;;;;;;5.47;2.50;;;;;;;13.77;100.00;99780.53;687650;28;3093;-63
2023/07/25 00:20:09;;;;;;;4.85;2.10;;;;;;;13.79;100.00;99780.53;688194;28;1154;-64
2023/07/25 00:20:30;;;;;;;6.45;2.22;;;;;;;13.78;100.00;99782.28;686045;28;1625;-63
2023/07/25 00:20:50;;;;;;;5.35;2.20;;;;;;;13.78;100.00;99778.78;688045;28;852;-63
2023/07/25 00:21:11;;;;;;;5.67;2.13;;;;;;;13.77;100.00;99780.53;685165;28;1345;-64
2023/07/25 00:21:31;;;;;;;5.28;2.10;;;;;;;13.76;100.00;99778.84;684172;28;1553;-63
2023/07/25 00:21:52;;;;;;;5.10;2.10;;;;;;;13.77;100.00;99779.69;685365;28;955;-63
2023/07/25 00:22:12;;;;;;;4.38;2.10;;;;;;;13.76;100.00;99780.59;683380;28;4389;-64
2023/07/25 00:22:33;;;;;;;4.60;2.30;;;;;;;13.76;100.00;99780.59;683946;28;1670;-63
2023/07/25 00:22:53;;;;;;;4.85;2.40;;;;;;;13.76;100.00;99777.97;687744;28;1074;-63
2023/07/25 00:23:13;;;;;;;4.97;2.47;;;;;;;13.76;100.00;99780.59;688227;28;1181;-63
2023/07/25 00:23:34;;;;;;;6.10;2.20;;;;;;;13.75;100.00;99782.38;686815;28;1528;-63
2023/07/25 00:23:54;;;;;;;5.10;2.20;;;;;;;13.75;100.00;99784.16;687555;28;896;-63
2023/07/25 00:24:15;;;;;;;4.18;2.15;;;;;;;13.74;100.00;99785.06;688474;28;797;-63
2023/07/25 00:24:35;;;;;;;4.70;2.10;;;;;;;13.76;100.00;99783.22;687151;28;1470;-62
2023/07/25 00:24:55;;;;;;;4.83;2.17;;;;;;;13.81;100.00;99788.34;687734;28;1276;-63
2023/07/25 00:25:17;;;;;;;4.78;2.15;;;;;;;13.81;100.00;99783.09;687557;28;4932;-63
2023/07/25 00:25:37;;;;;;;5.93;2.30;;;;;;;13.78;100.00;99784.91;687103;28;1426;-64
2023/07/25 00:25:58;;;;;;;5.60;2.25;;;;;;;13.79;100.00;99785.78;686425;28;856;-63
2023/07/25 00:26:18;;;;;;;4.17;2.00;;;;;;;13.78;100.00;99789.31;688003;28;1342;-63
2023/07/25 00:26:39;;;;;;;5.05;2.00;;;;;;;13.75;100.00;99782.38;687257;28;786;-63
2023/07/25 00:26:59;;;;;;;5.07;2.03;;;;;;;13.75;100.00;99781.53;688389;28;1206;-64
2023/07/25 00:27:19;;;;;;;4.78;2.00;;;;;;;13.75;100.00;99785.00;687477;28;1517;-63
2023/07/25 00:27:40;;;;;;;5.13;1.90;;;;;;;13.75;100.00;99786.78;688255;28;781;-63
2023/07/25 00:28:01;;;;;;;6.20;2.20;;;;;;;13.75;100.00;99786.78;687463;28;889;-63
2023/07/25 00:28:22;;;;;;;6.13;2.23;;;;;;;13.77;100.00;99784.94;684036;28;4333;-63
2023/07/25 00:28:43;;;;;;;5.03;1.95;;;;;;;13.78;100.00;99778.78;685687;28;889;-63
2023/07/25 00:29:04;;;;;;;4.97;2.10;;;;;;;13.78;100.00;99771.75;685236;28;868;-63
2023/07/25 00:29:26;;;;;;;4.03;2.03;;;;;;;13.78;100.00;99784.06;685375;28;1458;-63
2023/07/25 00:29:50;;;;;;;4.90;2.13;;;;;;;13.76;100.00;99783.22;684702;28;1082;-63
2023/07/25 00:30:13;;;;;;;4.45;2.10;;;;;;;13.76;100.00;99783.22;685772;28;919;-63
2023/07/25 00:30:33;;;;;;;4.93;2.10;;;;;;;13.78;100.00;99782.28;686477;28;1092;-63
2023/07/25 00:30:53;;;;;;;4.70;2.03;;;;;;;13.80;100.00;99776.97;686163;28;892;-62
2023/07/25 00:31:14;;;;;;;4.27;2.00;;;;;;;13.79;100.00;99777.91;684049;28;4502;-63
2023/07/25 00:31:34;;;;;;;4.38;1.90;;;;;;;13.78;100.00;99777.03;683167;28;924;-62
2023/07/25 00:31:55;;;;;;;5.07;2.17;;;;;;;13.77;100.00;99777.91;680168;29;806;-63
2023/07/25 00:32:15;;;;;;;5.80;2.10;;;;;;;13.80;100.00;99779.59;679538;29;900;-63
2023/07/25 00:32:36;;;;;;;5.55;2.20;;;;;;;13.81;100.00;99776.06;675639;29;1067;-63
2023/07/25 00:32:56;;;;;;;5.17;2.20;;;;;;;13.81;100.00;99778.69;677622;29;960;-63
2023/07/25 00:33:17;;;;;;;4.93;2.10;;;;;;;13.78;100.00;99779.66;678902;29;1004;-63
2023/07/25 00:33:37;;;;;;;6.30;1.90;;;;;;;13.77;100.00;99775.28;678852;29;1071;-63
2023/07/25 00:33:58;;;;;;;7.13;2.10;;;;;;;13.77;100.00;99775.28;683487;28;801;-63
2023/07/25 00:34:18;;;;;;;4.87;2.00;;;;;;;13.77;100.00;99782.31;679742;29;4491;-63
2023/07/25 00:34:38;;;;;;;5.77;2.10;;;;;;;13.78;100.00;99781.44;681445;29;1283;-63
2023/07/25 00:34:59;;;;;;;4.93;1.92;;;;;;;13.79;100.00;99785.78;681780;28;1158;-63
2023/07/25 00:35:20;;;;;;;5.10;2.03;;;;;;;13.77;100.00;99779.69;678746;29;1349;-63
2023/07/25 00:35:40;;;;;;;4.53;2.10;;;;;;;13.76;100.00;99786.72;679922;29;874;-63
2023/07/25 00:36:00;;;;;;;4.70;2.10;;;;;;;13.75;100.00;99789.41;682585;29;892;-63
2023/07/25 00:36:21;;;;;;;5.35;2.25;;;;;;;13.73;100.00;99784.19;679967;28;1203;-63
2023/07/25 00:36:41;;;;;;;6.10;2.22;;;;;;;13.74;100.00;99779.81;682689;28;967;-63
2023/07/25 00:37:02;;;;;;;5.23;2.20;;;;;;;13.72;100.00;99789.47;682838;28;1187;-63
2023/07/25 00:37:22;;;;;;;4.57;2.20;;;;;;;13.71;100.00;99785.16;683583;28;4456;-63
2023/07/25 00:37:43;;;;;;;3.87;2.17;;;;;;;13.72;100.00;99781.59;685002;28;1421;-63
2023/07/25 00:38:04;;;;;;;3.65;2.00;;;;;;;13.71;100.00;99779.91;682829;29;884;-63
2023/07/25 00:38:25;;;;;;;5.25;2.03;;;;;;;13.71;100.00;99787.78;680885;28;1341;-63
2023/07/25 00:38:45;;;;;;;5.70;2.20;;;;;;;13.71;100.00;99780.75;683167;28;932;-63
2023/07/25 00:39:06;;;;;;;4.60;2.07;;;;;;;13.71;100.00;99779.91;682534;29;1918;-63
2023/07/25 00:39:27;;;;;;;4.40;1.90;;;;;;;13.71;100.00;99782.53;678182;29;1458;-63
2023/07/25 00:39:52;;;;;;;5.30;2.00;;;;;;;13.71;100.00;99780.75;684168;28;865;-63
2023/07/25 00:40:13;;;;;;;4.15;2.15;;;;;;;13.71;100.00;99783.38;685904;28;4321;-63
2023/07/25 00:40:38;;;;;;;4.30;2.00;;;;;;;13.71;100.00;99786.00;685931;28;1117;-63
2023/07/25 00:40:58;;;;;;;5.05;2.10;;;;;;;13.72;100.00;99782.47;686362;28;809;-63
2023/07/25 00:41:19;;;;;;;5.97;2.13;;;;;;;13.75;100.00;99782.38;686641;28;927;-63
2023/07/25 00:41:39;;;;;;;4.57;2.10;;;;;;;13.74;100.00;99782.44;687706;28;869;-63
2023/07/25 00:42:00;;;;;;;4.88;2.28;;;;;;;13.73;100.00;99784.19;684430;28;789;-64
2023/07/25 00:42:20;;;;;;;5.90;2.40;;;;;;;13.73;100.00;99789.44;684528;28;5892;-63
2023/07/25 00:42:41;;;;;;;6.83;2.50;;;;;;;13.72;100.00;99786.84;685046;28;859;-63
2023/07/25 00:43:01;;;;;;;5.50;2.33;;;;;;;13.71;100.00;99786.00;682705;29;901;-64
2023/07/25 00:43:22;;;;;;;5.38;2.30;;;;;;;13.74;100.00;99785.06;681453;28;4492;-64
2023/07/25 00:43:42;;;;;;;5.03;2.03;;;;;;;13.74;100.00;99780.66;683390;28;1961;-64
2023/07/25 00:44:03;;;;;;;5.67;2.27;;;;;;;13.73;100.00;99784.19;685768;28;939;-63
2023/07/25 00:44:23;;;;;;;5.60;2.40;;;;;;;13.77;100.00;99787.56;681771;28;1379;-64
2023/07/25 00:44:44;;;;;;;4.97;2.20;;;;;;;13.77;100.00;99792.81;682379;29;880;-63
2023/07/25 00:45:05;;;;;;;5.37;2.60;;;;;;;13.75;100.00;99786.78;682097;28;1133;-64
2023/07/25 00:45:26;;;;;;;6.18;2.30;;;;;;;13.76;100.00;99788.47;684397;28;1393;-63
2023/07/25 00:45:47;;;;;;;5.45;2.30;;;;;;;13.78;100.00;99789.31;685354;28;884;-63
2023/07/25 00:46:08;;;;;;;5.32;2.20;;;;;;;13.77;100.00;99793.69;685290;28;897;-63
2023/07/25 00:46:29;;;;;;;5.95;2.53;;;;;;;13.74;100.00;99791.16;685729;28;4645;-64
2023/07/25 00:46:49;;;;;;;5.73;2.73;;;;;;;13.74;100.00;99785.91;687502;28;1034;-63
2023/07/25 00:47:10;;;;;;;4.20;2.08;;;;;;;13.74;100.00;99792.94;683060;28;1422;-63
2023/07/25 00:47:31;;;;;;;4.18;2.00;;;;;;;13.73;100.00;99789.44;684799;28;951;-63
2023/07/25 00:47:52;;;;;;;4.77;2.00;;;;;;;13.72;100.00;99787.72;682610;28;1252;-63
2023/07/25 00:48:13;;;;;;;5.22;2.13;;;;;;;13.77;100.00;99787.56;681376;29;952;-63
2023/07/25 00:48:33;;;;;;;4.78;2.20;;;;;;;13.78;100.00;99789.31;681976;28;1323;-63
2023/07/25 00:48:54;;;;;;;5.10;2.20;;;;;;;13.83;100.00;99790.03;682802;28;1519;-63
2023/07/25 00:49:15;;;;;;;5.25;2.20;;;;;;;13.81;100.00;99794.44;684821;28;4272;-63
2023/07/25 00:49:35;;;;;;;4.75;2.20;;;;;;;13.81;100.00;99797.06;683098;28;1125;-63
2023/07/25 00:49:57;;;;;;;5.87;2.23;;;;;;;13.83;100.00;99790.03;680501;29;1643;-63
2023/07/25 00:50:17;;;;;;;5.70;2.10;;;;;;;13.89;100.00;99784.56;679380;29;1366;-63
2023/07/25 00:50:38;;;;;;;4.00;2.20;;;;;;;13.93;100.00;99786.19;678075;29;1326;-63
2023/07/25 00:50:59;;;;;;;4.60;2.10;;;;;;;13.92;100.00;99788.84;681816;29;862;-63
2023/07/25 00:51:19;;;;;;;4.68;2.20;;;;;;;13.89;100.00;99792.44;677398;28;1508;-63
2023/07/25 00:51:40;;;;;;;4.63;2.20;;;;;;;13.87;100.00;99786.34;680162;28;1091;-63
2023/07/25 00:52:00;;;;;;;4.82;2.30;;;;;;;13.84;100.00;99786.47;681584;28;976;-63
2023/07/25 00:52:21;;;;;;;5.47;2.50;;;;;;;13.83;100.00;99784.78;678522;28;4444;-63
2023/07/25 00:52:41;;;;;;;6.63;2.63;;;;;;;13.83;100.00;99784.78;680024;29;1045;-63
2023/07/25 00:53:03;;;;;;;6.57;2.53;;;;;;;13.80;100.00;99787.47;679738;28;1267;-63
2023/07/25 00:53:23;;;;;;;4.90;2.47;;;;;;;13.80;100.00;99784.84;679468;29;935;-64
2023/07/25 00:53:44;;;;;;;5.70;2.85;;;;;;;13.78;100.00;99784.06;680169;28;1153;-63
2023/07/25 00:54:05;;;;;;;5.43;2.60;;;;;;;13.78;100.00;99784.06;680840;29;841;-63
2023/07/25 00:54:26;;;;;;;5.28;2.55;;;;;;;13.78;100.00;99784.06;682774;28;915;-63
2023/07/25 00:54:48;;;;;;;4.20;2.30;;;;;;;13.78;100.00;99784.06;686320;28;832;-63
2023/07/25 00:55:09;;;;;;;5.38;2.47;;;;;;;13.79;100.00;99785.78;684993;28;4386;-63
2023/07/25 00:55:30;;;;;;;5.17;2.20;;;;;;;13.79;100.00;99788.41;685690;28;1233;-63
2023/07/25 00:55:50;;;;;;;5.03;2.50;;;;;;;13.78;100.00;99786.69;687889;28;865;-63
2023/07/25 00:56:13;;;;;;;6.13;2.60;;;;;;;13.76;100.00;99781.47;688140;28;1643;-64
2023/07/25 00:56:34;;;;;;;5.78;2.50;;;;;;;13.77;100.00;99784.94;686884;28;1343;-63
2023/07/25 00:56:55;;;;;;;5.25;2.55;;;;;;;13.76;100.00;99788.47;686869;28;896;-63
2023/07/25 00:57:16;;;;;;;5.00;2.43;;;;;;;13.76;100.00;99780.59;687975;28;1174;-63
2023/07/25 00:57:37;;;;;;;6.68;2.63;;;;;;;13.74;100.00;99785.06;684433;28;1284;-63
2023/07/25 00:57:57;;;;;;;5.88;2.65;;;;;;;13.71;100.00;99786.00;685535;28;936;-63
2023/07/25 00:58:19;;;;;;;5.17;2.70;;;;;;;13.73;100.00;99784.19;685158;28;4386;-63
2023/07/25 00:58:40;;;;;;;4.57;2.50;;;;;;;13.84;100.00;99790.88;684893;28;1271;-63
2023/07/25 00:59:01;;;;;;;4.53;2.27;;;;;;;13.87;100.00;99783.72;680367;29;1349;-64
2023/07/25 00:59:22;;;;;;;5.35;2.50;;;;;;;13.91;100.00;99787.13;682200;28;928;-64
2023/07/25 00:59:44;;;;;;;5.47;2.70;;;;;;;13.98;100.00;99788.63;684003;28;895;-63
2023/07/25 01:00:06;;;;;;;5.38;2.60;;;;;;;14.05;100.00;99786.69;677663;29;2280;-63
2023/07/25 01:00:26;;;;;;;6.28;2.60;;;;;;;13.99;100.00;99785.13;679717;28;904;-63
2023/07/25 01:00:47;;;;;;;5.60;2.70;;;;;;;13.96;100.00;99788.69;680699;28;1362;-64
2023/07/25 01:01:07;;;;;;;5.47;2.78;;;;;;;13.91;100.00;99777.47;679748;29;1563;-63
2023/07/25 01:01:28;;;;;;;7.00;2.77;;;;;;;13.88;100.00;99782.84;677858;29;4644;-64
2023/07/25 01:01:49;;;;;;;8.10;2.83;;;;;;;13.85;100.00;99784.72;678145;29;941;-63
2023/07/25 01:02:10;;;;;;;6.93;2.80;;;;;;;13.83;100.00;99787.41;682712;28;1107;-63
2023/07/25 01:02:31;;;;;;;5.88;2.67;;;;;;;13.84;100.00;99786.47;682230;28;921;-63
2023/07/25 01:02:52;;;;;;;5.80;2.63;;;;;;;13.82;100.00;99783.03;685345;28;924;-63
2023/07/25 01:03:13;;;;;;;7.28;2.60;;;;;;;13.81;100.00;99786.56;685852;28;849;-63
2023/07/25 01:03:36;;;;;;;6.65;2.60;;;;;;;13.82;100.00;99785.66;686611;28;1140;-63
2023/07/25 01:03:57;;;;;;;5.53;2.55;;;;;;;13.88;100.00;99787.25;687575;28;987;-62
2023/07/25 01:04:17;;;;;;;5.17;2.80;;;;;;;13.85;100.00;99788.19;687689;28;4550;-63
2023/07/25 01:04:39;;;;;;;5.03;2.50;;;;;;;13.84;100.00;99794.34;684574;28;947;-64
2023/07/25 01:04:59;;;;;;;5.30;2.55;;;;;;;13.84;100.00;99781.22;684780;28;2012;-64
2023/07/25 01:05:21;;;;;;;7.13;3.00;;;;;;;13.83;100.00;99787.41;685145;28;914;-64
2023/07/25 01:05:45;;;;;;;6.18;2.83;;;;;;;13.82;100.00;99790.03;683668;28;1220;-63
2023/07/25 01:06:11;;;;;;;6.90;2.80;;;;;;;13.81;100.00;99781.31;682746;28;1396;-63
2023/07/25 01:06:33;;;;;;;8.23;2.70;;;;;;;13.82;100.00;99792.66;683481;28;925;-63
2023/07/25 01:06:53;;;;;;;6.28;3.05;;;;;;;13.79;100.00;99784.00;684482;28;1074;-64
2023/07/25 01:07:15;;;;;;;5.90;3.20;;;;;;;13.84;100.00;99793.50;683734;28;4511;-63
2023/07/25 01:07:38;;;;;;;5.03;3.10;;;;;;;13.86;100.00;99789.91;680733;28;1102;-63
2023/07/25 01:07:59;;;;;;;5.88;3.05;;;;;;;13.83;100.00;99784.78;681596;29;830;-63
2023/07/25 01:08:20;;;;;;;6.18;2.90;;;;;;;13.86;100.00;99789.91;678437;29;1235;-64
2023/07/25 01:09:07;;;;;;;7.20;3.00;;;;;;;13.85;100.00;99777.69;678307;29;1265;-63
2023/07/25 01:09:42;;;;;;;7.00;2.92;;;;;;;13.82;100.00;99788.28;680313;28;1722;-64
2023/07/25 01:10:02;;;;;;;7.15;3.20;;;;;;;13.84;100.00;99780.38;685182;28;1076;-63
2023/07/25 01:10:23;;;;;;;6.33;3.13;;;;;;;13.82;100.00;99783.03;686512;28;4453;-64
2023/07/25 01:10:43;;;;;;;5.63;2.83;;;;;;;13.81;100.00;99781.31;691517;28;1057;-63
2023/07/25 01:11:04;;;;;;;6.27;3.10;;;;;;;13.80;100.00;99779.59;687207;28;1224;-63
2023/07/25 01:11:24;;;;;;;5.72;3.00;;;;;;;13.79;100.00;99773.50;685190;28;1053;-63
2023/07/25 01:11:45;;;;;;;5.73;2.73;;;;;;;13.80;100.00;99774.34;686045;28;935;-64
2023/07/25 01:12:06;;;;;;;6.38;2.80;;;;;;;13.80;100.00;99776.97;684925;28;814;-64
2023/07/25 01:12:27;;;;;;;6.28;2.88;;;;;;;13.80;100.00;99774.34;684757;28;997;-64
2023/07/25 01:12:47;;;;;;;5.77;2.70;;;;;;;13.88;100.00;99771.47;685602;28;1254;-64
2023/07/25 01:13:08;;;;;;;5.97;2.90;;;;;;;13.87;100.00;99772.38;684315;28;1344;-64
2023/07/25 01:13:29;;;;;;;6.18;3.20;;;;;;;13.85;100.00;99775.06;685607;28;4380;-64
2023/07/25 01:13:50;;;;;;;5.60;2.97;;;;;;;13.84;100.00;99770.69;685189;28;877;-63
2023/07/25 01:14:10;;;;;;;5.10;2.75;;;;;;;13.84;100.00;99768.06;681964;28;1039;-64
2023/07/25 01:14:32;;;;;;;5.97;2.80;;;;;;;13.84;100.00;99772.47;681890;28;948;-63
2023/07/25 01:14:54;;;;;;;6.85;2.88;;;;;;;13.83;100.00;99768.13;683377;28;845;-64
2023/07/25 01:15:15;;;;;;;6.82;3.05;;;;;;;13.84;100.00;99775.09;684094;28;880;-64
2023/07/25 01:15:36;;;;;;;7.10;3.40;;;;;;;13.83;100.00;99768.13;683612;28;1006;-64
2023/07/25 01:15:57;;;;;;;6.50;3.28;;;;;;;13.79;100.00;99764.75;687090;28;3069;-63
2023/07/25 01:16:21;;;;;;;6.28;2.85;;;;;;;13.78;100.00;99774.38;686739;28;4422;-63
2023/07/25 01:16:41;;;;;;;5.70;2.90;;;;;;;13.78;100.00;99768.28;685214;28;865;-64
2023/07/25 01:17:07;;;;;;;6.50;3.20;;;;;;;13.77;100.00;99772.66;685398;28;798;-63
2023/07/25 01:17:28;;;;;;;5.57;3.00;;;;;;;13.77;100.00;99769.19;681160;28;1569;-63
2023/07/25 01:17:49;;;;;;;5.45;3.05;;;;;;;13.76;100.00;99770.09;682480;29;1062;-63
2023/07/25 01:18:10;;;;;;;6.43;3.08;;;;;;;13.75;100.00;99768.41;681425;29;933;-63
2023/07/25 01:18:32;;;;;;;5.53;3.05;;;;;;;13.74;100.00;99772.78;681359;28;1454;-64
2023/07/25 01:18:54;;;;;;;6.30;3.00;;;;;;;13.73;100.00;99767.56;685540;28;920;-63
2023/07/25 01:19:17;;;;;;;6.10;3.20;;;;;;;13.75;100.00;99771.03;685241;28;4574;-63
2023/07/25 01:19:43;;;;;;;10.30;3.83;;;;;;;13.74;100.00;99769.28;688461;28;1485;-63
2023/07/25 01:20:07;;;;;;;9.30;4.00;;;;;;;13.71;100.00;99759.75;689851;28;951;-63
2023/07/25 01:20:28;;;;;;;6.50;3.42;;;;;;;13.71;100.00;99762.38;688783;28;1535;-64
2023/07/25 01:20:49;;;;;;;6.17;3.27;;;;;;;13.76;100.00;99764.84;687958;28;1283;-63
2023/07/25 01:21:09;;;;;;;7.18;3.38;;;;;;;13.75;100.00;99756.09;688103;28;1146;-63
2023/07/25 01:21:31;;;;;;;5.78;3.35;;;;;;;13.76;100.00;99762.22;686876;28;1528;-63
2023/07/25 01:21:51;;;;;;;7.18;3.50;;;;;;;13.76;100.00;99760.47;687860;28;858;-64
2023/07/25 01:22:12;;;;;;;6.65;3.58;;;;;;;13.77;100.00;99751.66;684585;28;4381;-63
2023/07/25 01:22:36;;;;;;;6.60;3.60;;;;;;;13.78;100.00;99765.66;684273;28;1196;-64
2023/07/25 01:22:58;;;;;;;6.70;3.30;;;;;;;13.75;100.00;99758.75;687531;28;813;-63
2023/07/25 01:23:20;;;;;;;7.20;3.53;;;;;;;13.79;100.00;99762.97;685265;28;978;-64
2023/07/25 01:23:42;;;;;;;7.28;3.70;;;;;;;13.79;100.00;99762.13;682507;29;980;-63
2023/07/25 01:24:03;;;;;;;5.88;3.78;;;;;;;13.78;100.00;99755.16;684108;28;972;-64
2023/07/25 01:24:24;;;;;;;7.53;4.00;;;;;;;13.77;100.00;99759.53;681699;28;1631;-63
2023/07/25 01:24:46;;;;;;;9.10;4.15;;;;;;;13.77;100.00;99756.06;682229;29;833;-63
2023/07/25 01:25:08;;;;;;;7.68;3.42;;;;;;;13.74;100.00;99759.63;682494;28;841;-63
2023/07/25 01:25:28;;;;;;;7.22;3.40;;;;;;;13.72;100.00;99758.84;683373;28;4723;-64
2023/07/25 01:25:49;;;;;;;6.07;3.43;;;;;;;13.76;100.00;99759.59;686359;28;1227;-64
2023/07/25 01:26:09;;;;;;;6.47;3.80;;;;;;;13.77;100.00;99763.94;686278;28;1061;-64
2023/07/25 01:26:30;;;;;;;6.87;4.00;;;;;;;13.75;100.00;99755.25;683437;28;1470;-64
2023/07/25 01:26:51;;;;;;;5.95;3.60;;;;;;;13.74;100.00;99761.41;685083;28;1350;-63
2023/07/25 01:27:12;;;;;;;6.35;3.60;;;;;;;13.74;100.00;99758.78;685575;28;853;-63
2023/07/25 01:27:33;;;;;;;6.75;3.60;;;;;;;13.72;100.00;99755.34;685071;28;1077;-64
2023/07/25 01:27:53;;;;;;;7.30;3.90;;;;;;;13.71;100.00;99759.75;687732;28;987;-64
2023/07/25 01:28:14;;;;;;;7.18;3.65;;;;;;;13.71;100.00;99764.16;684407;28;4479;-63
2023/07/25 01:28:37;;;;;;;7.10;3.88;;;;;;;13.73;100.00;99754.44;689122;28;1568;-64
2023/07/25 01:28:57;;;;;;;8.10;3.75;;;;;;;13.72;100.00;99755.34;688525;28;912;-64
2023/07/25 01:29:17;;;;;;;6.90;3.60;;;;;;;13.72;100.00;99755.34;683445;28;1097;-64
2023/07/25 01:29:38;;;;;;;6.37;3.83;;;;;;;13.70;100.00;99751.91;686022;28;2184;-63
2023/07/25 01:29:59;;;;;;;6.93;3.95;;;;;;;13.70;100.00;99747.50;684790;28;960;-63
2023/07/25 01:30:19;;;;;;;9.50;4.10;;;;;;;13.69;100.00;99752.81;685312;28;896;-63
2023/07/25 01:30:40;;;;;;;8.82;3.80;;;;;;;13.69;100.00;99752.81;686664;28;916;-63
2023/07/25 01:31:01;;;;;;;6.03;3.85;;;;;;;13.67;100.00;99752.88;683700;28;1211;-64
2023/07/25 01:31:21;;;;;;;6.10;3.93;;;;;;;13.70;100.00;99746.66;683185;28;5238;-64
2023/07/25 01:31:42;;;;;;;7.97;4.32;;;;;;;13.70;100.00;99751.91;685701;28;778;-64
2023/07/25 01:32:03;;;;;;;8.60;4.10;;;;;;;13.70;100.00;99751.91;684941;28;1220;-63
2023/07/25 01:32:23;;;;;;;8.55;4.22;;;;;;;13.69;100.00;99752.81;683860;28;1528;-64
2023/07/25 01:32:44;;;;;;;8.07;4.43;;;;;;;13.68;100.00;99744.09;682686;28;822;-63
2023/07/25 01:33:04;;;;;;;8.30;4.27;;;;;;;13.67;100.00;99746.78;684489;28;1218;-64
2023/07/25 01:33:25;;;;;;;6.97;4.30;;;;;;;13.66;100.00;99745.03;683157;28;1443;-63
2023/07/25 01:33:46;;;;;;;6.78;4.18;;;;;;;13.66;100.00;99750.28;683970;28;809;-62
2023/07/25 01:34:06;;;;;;;7.23;4.23;;;;;;;13.68;100.00;99744.09;686049;28;1156;-64
2023/07/25 01:34:26;;;;;;;8.30;4.40;;;;;;;13.74;100.00;99738.63;684838;28;4496;-64
2023/07/25 01:34:47;;;;;;;7.57;4.07;;;;;;;13.75;100.00;99744.75;685288;28;1344;-64
2023/07/25 01:35:08;;;;;;;7.93;4.17;;;;;;;13.75;100.00;99739.50;684745;28;813;-63
2023/07/25 01:35:28;;;;;;;7.93;4.20;;;;;;;13.73;100.00;99739.53;686811;28;1172;-64
2023/07/25 01:35:49;;;;;;;7.07;4.13;;;;;;;13.73;100.00;99741.31;687864;28;1448;-63
2023/07/25 01:36:10;;;;;;;7.20;4.20;;;;;;;13.73;100.00;99739.53;688005;28;909;-63
2023/07/25 01:36:30;;;;;;;7.50;4.18;;;;;;;13.70;100.00;99739.63;686643;28;1430;-64
2023/07/25 01:36:52;;;;;;;7.15;3.85;;;;;;;13.74;100.00;99735.16;684828;28;1451;-64
2023/07/25 01:37:16;;;;;;;6.28;3.80;;;;;;;13.73;100.00;99736.06;684977;28;4694;-63
2023/07/25 01:37:36;;;;;;;7.25;4.10;;;;;;;13.83;100.00;99737.47;685206;28;1595;-64
2023/07/25 01:37:56;;;;;;;8.38;4.57;;;;;;;13.80;100.00;99734.94;687990;28;1145;-63
2023/07/25 01:38:17;;;;;;;7.50;4.40;;;;;;;13.78;100.00;99734.13;688048;28;765;-64
2023/07/25 01:38:37;;;;;;;7.78;4.13;;;;;;;13.80;100.00;99737.56;686305;28;1559;-64
2023/07/25 01:38:58;;;;;;;8.93;4.63;;;;;;;13.78;100.00;99734.13;687888;28;1219;-64
2023/07/25 01:39:18;;;;;;;7.00;4.47;;;;;;;13.76;100.00;99735.94;688100;28;1915;-64
2023/07/25 01:39:39;;;;;;;6.77;4.10;;;;;;;13.75;100.00;99731.63;686500;28;1544;-64
2023/07/25 01:40:00;;;;;;;6.82;4.20;;;;;;;13.76;100.00;99731.56;685645;28;2170;-64
2023/07/25 01:40:22;;;;;;;6.40;4.03;;;;;;;13.76;100.00;99735.94;683536;28;4740;-64
2023/07/25 01:40:42;;;;;;;6.97;4.10;;;;;;;13.74;100.00;99727.28;684624;28;1574;-64